WMKM/MKZ METAR and TAF weather

Enter ICAO airport designator
Station Type Date Time Source
WMKM METAR 2020/03/31 08:00 UTC NOAA

WMKM 310800Z 24006KT 160V330 9999 FEW021 33/25 Q1008


Station Type Date Time Source
WMKM Decoded METAR 2020/03/31 08:00 UTC NOAA

Malacca, Malaysia (WMKM) 02-16N 102-15E 9M
Mar 31, 2020 - 04:00 AM EDT / 2020.03.31 0800 UTC
Wind: from the WSW (240 degrees) at 7 MPH (6 KT) (direction variable):0
Visibility: greater than 7 mile(s):0
Sky conditions: mostly clear
Temperature: 91 F (33 C)
Heat index: 103.5 F (39.7 C):1
Dew Point: 77 F (25 C)
Relative Humidity: 62%
Pressure (altimeter): 29.77 in. Hg (1008 hPa)
ob: WMKM 310800Z 24006KT 160V330 9999 FEW021 33/25 Q1008
cycle: 8

Station Type Date Time Source
WMKM TAF 2020/03/31 06:00 UTC NOAA

TAF WMKM 310500Z 3106/0106 20005KT 9999 FEW020

Example: see airport list